createdAt,value
2023-06-25T00:02:21.517Z,10.68
2023-06-25T00:05:27.680Z,10.90
2023-06-25T00:08:33.322Z,10.50
2023-06-25T00:11:39.663Z,9.28
2023-06-25T00:14:45.623Z,9.78
2023-06-25T00:17:52.063Z,9.85
2023-06-25T00:20:58.769Z,10.48
2023-06-25T00:23:57.337Z,9.55
2023-06-25T00:27:03.759Z,9.98
2023-06-25T00:30:09.817Z,10.15
2023-06-25T00:33:17.052Z,9.75
2023-06-25T00:36:23.133Z,10.63
2023-06-25T00:39:29.278Z,9.33
2023-06-25T00:42:35.335Z,10.10
2023-06-25T00:45:41.427Z,10.28
2023-06-25T00:48:48.061Z,9.73
2023-06-25T00:51:53.348Z,9.88
2023-06-25T00:54:59.738Z,8.70
2023-06-25T00:58:08.083Z,9.43
2023-06-25T01:01:13.583Z,9.45
2023-06-25T01:04:34.720Z,8.98
2023-06-25T01:07:41.302Z,9.08
2023-06-25T01:10:46.826Z,9.03
2023-06-25T01:13:52.784Z,10.18
2023-06-25T01:16:59.569Z,9.83
2023-06-25T01:20:05.689Z,9.75
2023-06-25T01:23:12.261Z,10.05
2023-06-25T01:26:19.165Z,9.95
2023-06-25T01:29:24.987Z,9.88
2023-06-25T01:32:32.230Z,12.33
2023-06-25T01:35:32.262Z,9.98
2023-06-25T01:38:38.396Z,9.98
2023-06-25T01:41:43.468Z,9.28
2023-06-25T01:44:49.489Z,9.98
2023-06-25T01:47:55.358Z,9.33
2023-06-25T01:51:04.842Z,10.20
2023-06-25T01:54:11.330Z,9.80
2023-06-25T01:57:17.171Z,9.25
2023-06-25T02:00:24.370Z,9.10
2023-06-25T02:03:34.206Z,8.65
2023-06-25T02:06:39.757Z,8.90
2023-06-25T02:09:45.830Z,8.55
2023-06-25T02:12:51.449Z,8.65
2023-06-25T02:15:58.968Z,8.70
2023-06-25T02:19:04.948Z,8.93
2023-06-25T02:22:10.549Z,9.48
2023-06-25T02:25:17.208Z,9.70
2023-06-25T02:28:23.558Z,9.38
2023-06-25T02:31:30.435Z,9.60
2023-06-25T02:34:36.707Z,9.28
2023-06-25T02:37:42.303Z,9.30
2023-06-25T02:40:48.023Z,9.78
2023-06-25T02:43:54.376Z,9.05
2023-06-25T02:47:01.238Z,9.63
2023-06-25T02:50:07.421Z,9.85
2023-06-25T02:53:13.000Z,9.20
2023-06-25T02:56:18.997Z,9.60
2023-06-25T02:59:25.049Z,9.23
2023-06-25T03:02:30.656Z,9.55
2023-06-25T03:05:37.926Z,9.53
2023-06-25T03:08:44.867Z,9.73
2023-06-25T03:11:50.893Z,10.00
2023-06-25T03:14:58.854Z,11.50
2023-06-25T03:18:04.908Z,10.45
2023-06-25T03:21:12.241Z,9.88
2023-06-25T03:24:17.477Z,9.85
2023-06-25T03:27:24.768Z,9.83
2023-06-25T03:30:30.212Z,9.25
2023-06-25T03:33:35.468Z,11.00
2023-06-25T03:36:34.684Z,9.13
2023-06-25T03:39:40.327Z,10.17
2023-06-25T03:42:44.791Z,8.90
2023-06-25T03:45:50.263Z,8.90
2023-06-25T03:48:59.865Z,8.63
2023-06-25T03:52:07.757Z,9.03
2023-06-25T03:55:13.341Z,9.03
2023-06-25T03:58:19.621Z,8.35
2023-06-25T04:01:25.728Z,8.10
2023-06-25T04:04:30.898Z,9.10
2023-06-25T04:07:37.316Z,9.18
2023-06-25T04:10:43.163Z,9.53
2023-06-25T04:13:49.746Z,9.43
2023-06-25T04:16:57.377Z,8.25
2023-06-25T04:20:03.993Z,10.40
2023-06-25T04:23:10.762Z,10.68
2023-06-25T04:26:16.500Z,11.85
2023-06-25T04:29:22.125Z,9.88
2023-06-25T04:32:28.303Z,9.68
2023-06-25T04:35:33.166Z,10.88
2023-06-25T04:38:38.240Z,11.63
2023-06-25T04:41:44.108Z,11.93
2023-06-25T04:44:49.920Z,13.65
2023-06-25T04:47:54.826Z,14.28
2023-06-25T04:51:01.587Z,11.88
2023-06-25T04:54:07.959Z,11.35
2023-06-25T04:57:13.519Z,10.48
2023-06-25T05:00:21.858Z,10.70
2023-06-25T05:03:27.747Z,9.38
2023-06-25T05:06:33.245Z,8.13
2023-06-25T05:09:39.158Z,8.35
2023-06-25T05:12:45.026Z,8.83
2023-06-25T05:15:50.732Z,6.20
2023-06-25T05:18:58.154Z,6.55
2023-06-25T05:22:03.877Z,6.70
2023-06-25T05:25:10.322Z,5.83
2023-06-25T05:28:16.511Z,6.47
2023-06-25T05:31:22.819Z,4.55
2023-06-25T05:34:29.211Z,5.42
2023-06-25T05:37:34.557Z,6.67
2023-06-25T05:40:42.708Z,5.50
2023-06-25T05:43:48.844Z,5.25
2023-06-25T05:46:54.671Z,5.00
2023-06-25T05:49:54.418Z,4.65
2023-06-25T05:53:01.866Z,4.90
2023-06-25T05:56:07.141Z,3.80
2023-06-25T05:59:13.125Z,4.28
2023-06-25T06:02:18.652Z,3.80
2023-06-25T06:05:24.907Z,5.53
2023-06-25T06:08:30.073Z,4.45
2023-06-25T06:11:22.509Z,4.65
2023-06-25T06:14:28.390Z,4.62
2023-06-25T06:17:34.873Z,4.67
2023-06-25T06:20:41.308Z,5.00
2023-06-25T06:23:47.123Z,4.92
2023-06-25T06:26:53.548Z,4.42
2023-06-25T06:30:00.236Z,4.75
2023-06-25T06:33:06.885Z,5.67
2023-06-25T06:36:13.452Z,4.85
2023-06-25T06:39:18.995Z,5.67
2023-06-25T06:42:23.967Z,5.10
2023-06-25T06:45:29.436Z,5.30
2023-06-25T06:48:35.726Z,5.40
2023-06-25T06:51:42.158Z,5.55
2023-06-25T06:54:49.816Z,5.60
2023-06-25T06:57:56.456Z,4.90
2023-06-25T07:00:56.163Z,4.53
2023-06-25T07:04:02.427Z,4.72
2023-06-25T07:07:07.860Z,4.90
2023-06-25T07:13:31.710Z,4.65
2023-06-25T07:16:36.708Z,4.92
2023-06-25T07:19:42.905Z,3.87
2023-06-25T07:22:48.390Z,4.53
2023-06-25T07:25:54.361Z,4.12
2023-06-25T07:29:00.148Z,4.30
2023-06-25T07:32:08.347Z,3.42
2023-06-25T07:35:14.239Z,3.52
2023-06-25T07:38:19.892Z,2.70
2023-06-25T07:41:25.630Z,3.20
2023-06-25T07:44:50.231Z,4.28
2023-06-25T07:47:40.824Z,3.50
2023-06-25T07:50:46.051Z,3.50
2023-06-25T07:53:51.412Z,3.40
2023-06-25T07:56:57.583Z,3.90
2023-06-25T08:00:03.774Z,4.47
2023-06-25T08:03:16.025Z,3.72
2023-06-25T08:06:22.169Z,3.70
2023-06-25T08:25:44.412Z,3.37
2023-06-25T08:28:50.586Z,3.55
2023-06-25T08:31:56.580Z,3.12
2023-06-25T08:35:03.099Z,3.37
2023-06-25T08:38:08.042Z,3.00
2023-06-25T08:41:14.281Z,3.02
2023-06-25T08:44:21.939Z,2.50
2023-06-25T08:47:27.436Z,2.90
2023-06-25T08:50:32.617Z,3.20
2023-06-25T08:53:38.461Z,3.00
2023-06-25T08:56:44.047Z,3.00
2023-06-25T08:59:50.112Z,2.98
2023-06-25T09:02:56.403Z,2.47
2023-06-25T09:06:09.512Z,3.30
2023-06-25T09:09:15.329Z,2.70
2023-06-25T09:12:21.710Z,3.55
2023-06-25T09:15:27.614Z,3.37
2023-06-25T09:18:37.363Z,3.35
2023-06-25T09:21:47.143Z,4.22
2023-06-25T09:24:58.738Z,4.03
2023-06-25T09:28:03.792Z,2.98
2023-06-25T09:31:12.557Z,3.30
2023-06-25T09:34:20.311Z,3.30
2023-06-25T09:37:26.329Z,3.02
2023-06-25T09:40:31.550Z,2.72
2023-06-25T09:43:37.540Z,2.90
2023-06-25T09:46:43.385Z,2.67
2023-06-25T09:49:49.419Z,2.52
2023-06-25T09:52:55.639Z,2.47
2023-06-25T09:56:01.238Z,2.12
2023-06-25T09:59:05.838Z,3.00
2023-06-25T10:02:11.949Z,2.75
2023-06-25T10:05:17.680Z,3.10
2023-06-25T10:08:23.873Z,3.02
2023-06-25T10:11:30.683Z,2.77
2023-06-25T10:14:37.311Z,3.08
2023-06-25T10:17:42.176Z,3.55
2023-06-25T10:20:50.535Z,2.80
2023-06-25T10:23:56.684Z,3.08
2023-06-25T10:27:08.140Z,2.55
2023-06-25T10:30:13.232Z,3.47
2023-06-25T10:33:20.108Z,2.85
2023-06-25T10:36:25.192Z,2.75
2023-06-25T10:39:30.473Z,3.20
2023-06-25T10:42:35.811Z,2.50
2023-06-25T10:45:41.369Z,2.37
2023-06-25T10:48:47.457Z,2.52
2023-06-25T10:51:53.689Z,2.42
2023-06-25T10:54:58.980Z,2.62
2023-06-25T10:58:05.395Z,2.85
2023-06-25T11:01:11.699Z,2.87
2023-06-25T11:04:17.673Z,3.22
2023-06-25T11:07:26.636Z,3.52
2023-06-25T11:10:34.170Z,3.53
2023-06-25T11:13:40.546Z,3.75
2023-06-25T11:16:45.940Z,3.92
2023-06-25T11:19:51.288Z,4.35
2023-06-25T11:22:58.748Z,2.45
2023-06-25T11:26:04.683Z,4.53
2023-06-25T11:29:10.937Z,6.55
2023-06-25T11:32:17.921Z,6.22
2023-06-25T11:35:30.436Z,6.78
2023-06-25T11:38:44.244Z,6.10
2023-06-25T11:41:49.313Z,6.08
2023-06-25T11:44:55.615Z,7.45
2023-06-25T11:48:02.859Z,7.92
2023-06-25T11:51:07.956Z,6.05
2023-06-25T11:54:13.145Z,6.37
2023-06-25T11:57:18.854Z,5.65
2023-06-25T12:00:25.471Z,6.85
2023-06-25T12:03:34.050Z,6.75
2023-06-25T12:06:40.078Z,7.53
2023-06-25T12:09:45.618Z,6.67
2023-06-25T12:12:52.749Z,6.90
2023-06-25T12:16:00.456Z,5.83
2023-06-25T12:19:06.516Z,5.80
2023-06-25T12:22:12.072Z,7.20
2023-06-25T12:25:17.402Z,7.15
2023-06-25T12:28:24.119Z,6.40
2023-06-25T12:31:30.340Z,8.85
2023-06-25T12:34:36.243Z,11.00
2023-06-25T12:37:42.026Z,10.28
2023-06-25T12:40:48.432Z,13.32
2023-06-25T12:43:53.863Z,14.78
2023-06-25T12:47:00.947Z,13.75
2023-06-25T12:50:07.544Z,11.90
2023-06-25T12:53:14.004Z,13.20
2023-06-25T12:56:19.684Z,11.78
2023-06-25T12:59:26.182Z,16.90
2023-06-25T13:02:31.483Z,19.15
2023-06-25T13:05:38.244Z,19.82
2023-06-25T13:08:44.974Z,19.65
2023-06-25T13:11:50.051Z,19.87
2023-06-25T13:14:56.272Z,21.23
2023-06-25T13:18:02.493Z,20.65
2023-06-25T13:21:08.266Z,21.37
2023-06-25T13:24:13.298Z,20.72
2023-06-25T13:27:19.969Z,19.25
2023-06-25T13:30:26.492Z,19.82
2023-06-25T13:33:32.196Z,19.77
2023-06-25T13:36:37.889Z,21.00
2023-06-25T13:39:45.733Z,19.75
2023-06-25T13:42:51.978Z,21.07
2023-06-25T13:45:57.444Z,18.67
2023-06-25T13:49:04.351Z,18.87
2023-06-25T13:52:09.804Z,19.67
2023-06-25T13:55:14.862Z,20.02
2023-06-25T13:58:21.331Z,18.65
2023-06-25T14:01:27.987Z,16.23
2023-06-25T14:04:33.683Z,14.93
2023-06-25T14:07:39.783Z,12.53
2023-06-25T14:10:59.935Z,12.07
2023-06-25T14:17:10.191Z,11.55
2023-06-25T14:20:16.874Z,12.03
2023-06-25T14:23:17.300Z,11.53
2023-06-25T14:26:23.014Z,9.93
2023-06-25T14:29:27.867Z,9.20
2023-06-25T14:32:33.817Z,9.80
2023-06-25T14:35:40.236Z,9.10
2023-06-25T14:38:48.814Z,10.58
2023-06-25T14:41:55.157Z,10.00
2023-06-25T14:45:01.137Z,9.63
2023-06-25T14:48:07.331Z,9.48
2023-06-25T14:51:13.435Z,8.70
2023-06-25T14:54:18.973Z,8.70
2023-06-25T14:57:25.525Z,9.08
2023-06-25T15:00:31.177Z,9.28
2023-06-25T15:03:37.112Z,8.93
2023-06-25T15:06:45.832Z,8.43
2023-06-25T15:09:50.823Z,8.98
2023-06-25T15:12:58.256Z,9.20
2023-06-25T15:16:05.764Z,8.98
2023-06-25T15:19:11.707Z,9.70
2023-06-25T15:22:16.914Z,9.15
2023-06-25T15:25:22.693Z,8.45
2023-06-25T15:28:28.329Z,9.63
2023-06-25T15:31:34.728Z,9.55
2023-06-25T15:34:40.462Z,9.68
2023-06-25T15:37:46.182Z,9.85
2023-06-25T15:40:51.557Z,9.23
2023-06-25T15:43:58.397Z,10.20
2023-06-25T15:47:04.928Z,10.82
2023-06-25T15:50:11.919Z,10.20
2023-06-25T15:53:17.646Z,10.08
2023-06-25T15:56:22.990Z,10.72
2023-06-25T15:59:28.523Z,12.53
2023-06-25T16:02:34.719Z,13.32
2023-06-25T16:05:41.138Z,12.70
2023-06-25T16:08:47.469Z,12.47
2023-06-25T16:11:54.051Z,13.68
2023-06-25T16:15:00.518Z,13.22
2023-06-25T16:18:06.449Z,12.37
2023-06-25T16:21:12.221Z,13.80
2023-06-25T16:24:19.687Z,14.18
2023-06-25T16:27:25.395Z,12.82
2023-06-25T16:30:30.677Z,13.25
2023-06-25T16:33:36.689Z,13.38
2023-06-25T16:36:41.781Z,13.40
2023-06-25T16:39:48.184Z,13.72
2023-06-25T16:42:53.734Z,11.60
2023-06-25T16:46:00.388Z,13.48
2023-06-25T16:49:07.838Z,12.65
2023-06-25T16:52:14.430Z,13.58
2023-06-25T16:55:22.203Z,14.75
2023-06-25T16:58:28.468Z,14.00
2023-06-25T17:01:34.346Z,14.78
2023-06-25T17:04:40.403Z,14.85
2023-06-25T17:07:46.975Z,14.83
2023-06-25T17:10:53.666Z,14.98
2023-06-25T17:14:00.252Z,15.00
2023-06-25T17:17:07.613Z,14.65
2023-06-25T17:20:12.927Z,15.20
2023-06-25T17:23:19.432Z,15.13
2023-06-25T17:26:26.324Z,15.55
2023-06-25T17:29:32.520Z,16.30
2023-06-25T17:32:38.460Z,16.27
2023-06-25T17:35:45.082Z,17.52
2023-06-25T17:38:51.626Z,17.20
2023-06-25T17:41:57.592Z,17.40
2023-06-25T17:45:04.103Z,17.00
2023-06-25T17:48:09.507Z,16.62
2023-06-25T17:51:15.188Z,16.10
2023-06-25T17:54:21.392Z,16.17
2023-06-25T17:57:26.832Z,17.02
2023-06-25T18:00:33.285Z,15.98
2023-06-25T18:03:41.729Z,15.58
2023-06-25T18:06:47.256Z,15.15
2023-06-25T18:09:53.045Z,16.48
2023-06-25T18:12:59.465Z,16.75
2023-06-25T18:16:06.390Z,15.70
2023-06-25T18:19:12.660Z,14.87
2023-06-25T18:22:18.216Z,16.27
2023-06-25T18:25:26.067Z,16.00
2023-06-25T18:28:31.999Z,16.80
2023-06-25T18:31:38.215Z,16.23
2023-06-25T18:34:44.081Z,17.10
2023-06-25T18:37:49.720Z,15.50
2023-06-25T18:40:55.790Z,16.70
2023-06-25T18:44:02.678Z,17.73
2023-06-25T18:49:57.093Z,16.80
2023-06-25T18:53:03.692Z,16.20
2023-06-25T18:56:08.725Z,15.58
2023-06-25T18:59:14.049Z,16.27
2023-06-25T19:02:19.729Z,17.75
2023-06-25T19:05:26.495Z,17.00
2023-06-25T19:08:34.933Z,17.52
2023-06-25T19:11:41.040Z,16.80
2023-06-25T19:14:46.396Z,17.15
2023-06-25T19:17:53.069Z,16.67
2023-06-25T19:20:59.229Z,16.25
2023-06-25T19:24:04.047Z,16.70
2023-06-25T19:27:10.660Z,15.63
2023-06-25T19:30:17.128Z,15.90
2023-06-25T19:33:23.393Z,15.88
2023-06-25T19:36:29.438Z,16.32
2023-06-25T19:39:35.438Z,16.35
2023-06-25T19:42:42.093Z,16.30
2023-06-25T19:45:48.595Z,14.85
2023-06-25T19:48:54.265Z,15.40
2023-06-25T19:52:00.836Z,16.00
2023-06-25T19:55:06.284Z,16.27
2023-06-25T19:58:11.921Z,14.60
2023-06-25T20:01:18.055Z,15.38
2023-06-25T20:04:23.414Z,16.00
2023-06-25T20:07:32.130Z,17.50
2023-06-25T20:10:50.930Z,16.62
2023-06-25T20:13:57.831Z,17.75
2023-06-25T20:17:03.575Z,16.75
2023-06-25T20:20:09.381Z,16.77
2023-06-25T20:23:09.884Z,16.80
2023-06-25T20:26:16.439Z,16.85
2023-06-25T20:29:24.833Z,17.40
2023-06-25T20:32:30.706Z,16.25
2023-06-25T20:35:37.684Z,16.93
2023-06-25T20:38:42.320Z,17.25
2023-06-25T20:41:41.761Z,16.25
2023-06-25T20:44:36.191Z,17.42
2023-06-25T20:47:41.058Z,16.15
2023-06-25T20:50:46.638Z,16.23
2023-06-25T20:53:45.866Z,15.85
2023-06-25T20:56:52.432Z,16.07
2023-06-25T20:59:58.836Z,17.20
2023-06-25T21:03:05.872Z,15.88
2023-06-25T21:06:11.206Z,15.72
2023-06-25T21:09:17.628Z,16.80
2023-06-25T21:12:23.356Z,16.07
2023-06-25T21:15:29.034Z,15.53
2023-06-25T21:18:35.190Z,16.48
2023-06-25T21:21:41.611Z,15.00
2023-06-25T21:24:47.457Z,15.25
2023-06-25T21:27:54.015Z,15.38
2023-06-25T21:30:59.267Z,15.45
2023-06-25T21:34:05.101Z,15.32
2023-06-25T21:37:11.799Z,15.43
2023-06-25T21:40:17.245Z,13.50
2023-06-25T21:43:23.480Z,14.13
2023-06-25T21:46:29.159Z,14.13
2023-06-25T21:49:35.640Z,13.98
2023-06-25T21:52:41.813Z,14.40
2023-06-25T21:55:48.462Z,14.63
2023-06-25T21:58:54.120Z,14.30
2023-06-25T22:02:01.813Z,14.10
2023-06-25T22:05:08.527Z,13.68
2023-06-25T22:08:14.907Z,13.40
2023-06-25T22:11:23.765Z,13.60
2023-06-25T22:14:29.435Z,14.28
2023-06-25T22:17:35.743Z,15.32
2023-06-25T22:20:41.480Z,12.73
2023-06-25T22:23:47.846Z,13.20
2023-06-25T22:26:54.135Z,14.30
2023-06-25T22:29:59.878Z,13.38
2023-06-25T22:33:07.606Z,13.83
2023-06-25T22:36:12.919Z,14.43
2023-06-25T22:39:18.345Z,14.35
2023-06-25T22:42:23.854Z,13.30
2023-06-25T22:45:29.503Z,13.45
2023-06-25T22:48:28.762Z,13.95
2023-06-25T22:51:21.282Z,13.65
2023-06-25T22:54:26.701Z,13.00
2023-06-25T22:57:32.904Z,13.03
2023-06-25T23:00:38.754Z,14.35
2023-06-25T23:03:44.052Z,14.25
2023-06-25T23:06:48.964Z,12.55
2023-06-25T23:09:54.226Z,14.25
2023-06-25T23:13:07.470Z,13.95
2023-06-25T23:16:16.640Z,13.03
2023-06-25T23:19:24.487Z,13.62
2023-06-25T23:22:32.203Z,14.13
2023-06-25T23:25:38.837Z,14.00
2023-06-25T23:28:46.508Z,14.63
2023-06-25T23:31:52.194Z,14.73
2023-06-25T23:34:57.923Z,13.65
2023-06-25T23:38:04.068Z,14.13
2023-06-25T23:41:10.201Z,13.93
2023-06-25T23:44:17.435Z,13.75
2023-06-25T23:47:22.648Z,12.93
2023-06-25T23:50:27.683Z,14.05
2023-06-25T23:53:33.746Z,14.10
2023-06-25T23:56:43.591Z,13.05
2023-06-25T23:59:49.523Z,13.72
